Time;durP1;ratioP1;P1;durP2;ratioP2;P2;SDS_P1;SDS_P2;PMS_P1;PMS_P2;Temp;Humidity;BMP_temperature;BMP_pressure;BME280_temperature;BME280_humidity;BME280_pressure;Samples;Min_cycle;Max_cycle;Signal;HPM_P1;HPM_P2
2022/02/09 00:09:14;;;;;;;7.70;3.85;;;3.00;99.10;;;;;;5090543;28;20020;-75
2022/02/09 00:18:48;;;;;;;6.45;3.22;;;2.90;99.50;;;;;;5058287;28;20037;-74
2022/02/09 05:26:02;;;;;;;3.05;2.20;;;2.80;99.90;;;;;;4812815;29;20524;-79
2022/02/09 05:28:40;;;;;;;13.73;2.53;;;2.80;99.90;;;;;;4888579;29;20045;-80
2022/02/09 05:31:25;;;;;;;3.80;2.10;;;2.80;99.90;;;;;;4892014;29;20104;-80
2022/02/09 05:33:54;;;;;;;3.67;2.42;;;2.80;99.90;;;;;;4893087;29;20040;-80
2022/02/09 05:36:56;;;;;;;3.30;1.85;;;2.80;99.90;;;;;;4936018;28;20038;-80
2022/02/09 05:39:27;;;;;;;2.40;1.90;;;2.80;99.90;;;;;;5007445;28;20052;-81
2022/02/09 05:43:15;;;;;;;4.07;2.25;;;2.80;99.90;;;;;;4993416;28;20060;-79
2022/02/09 06:02:01;;;;;;;5.60;3.03;;;2.70;99.90;;;;;;4932183;29;20126;-78
2022/02/09 06:07:57;;;;;;;6.65;3.13;;;2.70;99.90;;;;;;4913585;29;20036;-78
2022/02/09 06:10:52;;;;;;;6.88;2.70;;;2.70;99.90;;;;;;4929096;29;20036;-78
2022/02/09 06:13:40;;;;;;;6.85;2.88;;;2.70;99.90;;;;;;4929239;29;20442;-78
2022/02/09 06:21:34;;;;;;;8.30;2.38;;;2.70;99.90;;;;;;5054498;28;20266;-78
2022/02/09 06:24:00;;;;;;;11.48;5.07;;;2.70;99.90;;;;;;5057188;28;20116;-79
2022/02/09 06:26:41;;;;;;;9.45;4.53;;;2.70;99.90;;;;;;5040444;28;20057;-79
2022/02/09 06:29:10;;;;;;;5.05;3.10;;;2.70;99.90;;;;;;5055004;28;20387;-78
2022/02/09 06:34:49;;;;;;;11.60;5.78;;;2.80;99.90;;;;;;5041728;28;20032;-78
2022/02/09 06:39:49;;;;;;;4.68;2.78;;;2.90;99.90;;;;;;5054888;28;20029;-77
2022/02/09 06:42:24;;;;;;;;;;;2.90;99.90;;;;;;5063664;28;20087;-79
2022/02/09 06:44:56;;;;;;;11.18;2.42;;;3.00;99.90;;;;;;5065658;28;20355;-79
2022/02/09 06:47:25;;;;;;;;;;;3.10;99.90;;;;;;5059965;28;20029;-78
2022/02/09 06:49:59;;;;;;;4.25;2.50;;;3.20;99.90;;;;;;5056928;28;20410;-78
2022/02/09 06:52:28;;;;;;;6.72;2.95;;;3.20;99.90;;;;;;5061185;28;20024;-79
2022/02/09 06:55:16;;;;;;;5.78;2.92;;;3.30;99.90;;;;;;5064848;28;20380;-78
2022/02/09 07:00:19;;;;;;;7.57;4.20;;;3.30;99.90;;;;;;5060163;28;20131;-79
2022/02/09 07:02:58;;;;;;;9.32;3.38;;;3.40;99.90;;;;;;5064235;28;20040;-78
2022/02/09 07:05:24;;;;;;;9.48;3.47;;;3.50;99.90;;;;;;5060590;28;20024;-78
2022/02/09 07:07:56;;;;;;;11.38;4.25;;;3.50;99.90;;;;;;5062899;28;20464;-78
2022/02/09 07:10:35;;;;;;;10.07;5.10;;;3.60;99.90;;;;;;5060467;28;20078;-81
2022/02/09 07:16:04;;;;;;;8.30;5.68;;;3.70;99.90;;;;;;5052820;28;20036;-77
2022/02/09 07:18:37;;;;;;;8.23;4.68;;;3.80;99.90;;;;;;5039314;28;20033;-78
2022/02/09 07:21:12;;;;;;;13.90;4.18;;;3.90;99.90;;;;;;5061899;28;20063;-78
2022/02/09 07:23:50;;;;;;;7.20;3.80;;;3.90;99.90;;;;;;5065785;28;20544;-78
2022/02/09 07:27:22;;;;;;;9.15;3.40;;;4.00;99.90;;;;;;5042920;28;20028;-78
2022/02/09 07:29:05;;;;;;;10.27;3.55;;;4.10;99.90;;;;;;5051791;28;20043;-77
2022/02/09 07:31:33;;;;;;;7.63;4.07;;;4.20;99.90;;;;;;5043843;28;20032;-77
2022/02/09 07:33:59;;;;;;;5.28;3.72;;;4.30;99.90;;;;;;5064994;28;20021;-77
2022/02/09 07:36:35;;;;;;;7.57;4.20;;;4.40;99.90;;;;;;5048900;28;20487;-78
2022/02/09 07:39:03;;;;;;;8.00;3.47;;;4.50;99.90;;;;;;5049903;28;21674;-78
2022/02/09 07:41:30;;;;;;;7.13;3.78;;;4.60;99.90;;;;;;5039402;28;20033;-78
2022/02/09 07:49:06;;;;;;;8.23;5.38;;;4.80;99.70;;;;;;5061479;28;20225;-78
2022/02/09 07:51:43;;;;;;;10.30;4.82;;;4.90;99.70;;;;;;5064410;28;20038;-78
2022/02/09 07:54:11;;;;;;;7.85;4.05;;;4.90;99.90;;;;;;5057141;28;20027;-78
2022/02/09 07:57:07;;;;;;;11.88;4.15;;;5.00;99.70;;;;;;5044321;28;20123;-78
2022/02/09 07:59:33;;;;;;;9.73;4.78;;;5.10;99.40;;;;;;5058857;28;20104;-78
2022/02/09 08:01:59;;;;;;;19.17;5.70;;;5.30;99.70;;;;;;5057021;28;20032;-78
2022/02/09 08:04:25;;;;;;;11.05;5.97;;;5.40;99.90;;;;;;5054898;28;20017;-78
2022/02/09 08:06:56;;;;;;;13.60;4.85;;;5.50;99.80;;;;;;5059997;28;20025;-77
2022/02/09 08:09:36;;;;;;;12.68;4.15;;;5.60;99.20;;;;;;5054307;28;20040;-77
2022/02/09 08:34:45;;;;;;;9.07;4.95;;;6.50;93.90;;;;;;5059433;28;20035;-77
2022/02/09 08:37:23;;;;;;;10.55;4.05;;;6.60;93.90;;;;;;5050583;28;20040;-77
2022/02/09 08:40:05;;;;;;;6.30;3.50;;;6.70;93.00;;;;;;5071337;28;20040;-77
2022/02/09 08:42:37;;;;;;;8.82;3.95;;;6.80;92.50;;;;;;5075362;28;20040;-77
2022/02/09 08:45:05;;;;;;;9.73;3.78;;;6.90;91.80;;;;;;5087432;28;20050;-77
2022/02/09 08:47:31;;;;;;;6.45;3.78;;;7.10;90.90;;;;;;5087726;28;20486;-77
2022/02/09 08:49:58;;;;;;;9.93;4.55;;;7.20;91.20;;;;;;5081877;28;20135;-77
2022/02/09 08:52:26;;;;;;;8.55;4.50;;;7.30;91.00;;;;;;5084702;28;20032;-77
2022/02/09 08:54:55;;;;;;;13.00;3.80;;;7.40;90.80;;;;;;5083260;28;20028;-78
2022/02/09 08:57:21;;;;;;;5.93;3.55;;;7.50;90.60;;;;;;5063648;28;20424;-78
2022/02/09 08:59:50;;;;;;;7.25;3.97;;;7.60;88.70;;;;;;5079436;28;20021;-78
2022/02/09 09:02:19;;;;;;;8.93;4.60;;;7.70;86.70;;;;;;5065950;28;20043;-78
2022/02/09 09:04:53;;;;;;;6.53;4.15;;;7.80;86.40;;;;;;5088617;28;20024;-78
2022/02/09 09:07:25;;;;;;;9.38;3.97;;;7.90;84.30;;;;;;5068107;28;20109;-77
2022/02/09 09:10:07;;;;;;;7.85;4.63;;;8.00;82.70;;;;;;5080245;28;20024;-78
2022/02/09 09:16:43;;;;;;;8.38;5.20;;;8.20;81.00;;;;;;5087251;28;19938;-86
2022/02/09 10:00:30;;;;;;;19.67;7.80;;;10.00;73.80;;;;;;5096461;28;20034;-78
2022/02/09 10:03:00;;;;;;;16.00;8.38;;;10.10;77.00;;;;;;5084790;28;20413;-78
2022/02/09 10:32:48;;;;;;;14.57;8.50;;;10.40;81.70;;;;;;5083310;28;20079;-78
2022/02/09 10:35:25;;;;;;;12.65;8.23;;;10.50;81.90;;;;;;5078792;28;20037;-79
2022/02/09 10:37:56;;;;;;;13.05;8.68;;;10.70;79.90;;;;;;5063025;28;20414;-78
2022/02/09 10:40:51;;;;;;;15.15;8.35;;;10.70;79.10;;;;;;5070270;28;20024;-79
2022/02/09 10:43:34;;;;;;;12.38;6.97;;;10.80;78.50;;;;;;5074928;28;20077;-78
2022/02/09 10:46:22;;;;;;;20.52;8.57;;;10.80;78.30;;;;;;5077365;28;20020;-78
2022/02/09 10:48:58;;;;;;;15.13;8.52;;;10.60;77.10;;;;;;5090094;28;20031;-77
2022/02/09 10:54:30;;;;;;;12.52;7.47;;;10.70;76.60;;;;;;5077041;28;20035;-78
2022/02/09 11:00:06;;;;;;;11.95;7.00;;;10.60;76.50;;;;;;5085122;28;20034;-78
2022/02/09 11:02:52;;;;;;;11.68;7.45;;;10.70;79.40;;;;;;5083882;28;20387;-78
2022/02/09 11:05:28;;;;;;;11.80;7.25;;;10.80;80.30;;;;;;5084099;28;20024;-83
2022/02/09 11:08:01;;;;;;;14.85;6.97;;;10.70;81.70;;;;;;5081676;28;20503;-78
2022/02/09 11:10:27;;;;;;;11.25;7.05;;;10.70;83.20;;;;;;5079482;28;20108;-78
2022/02/09 11:13:34;;;;;;;11.85;7.65;;;10.70;86.50;;;;;;5077196;28;20086;-83
2022/02/09 11:16:01;;;;;;;12.65;7.28;;;10.70;89.90;;;;;;5070428;28;20507;-84
2022/02/09 11:18:33;;;;;;;10.10;6.35;;;10.70;90.80;;;;;;5079059;28;20131;-81
2022/02/09 11:20:59;;;;;;;22.55;7.70;;;10.80;94.10;;;;;;5083584;28;20059;-83
2022/02/09 11:23:56;;;;;;;14.55;7.05;;;10.80;94.90;;;;;;5064857;28;20039;-81
2022/02/09 11:32:36;;;;;;;7.28;5.43;;;10.60;99.90;;;;;;5083491;28;20024;-79
2022/02/09 11:35:18;;;;;;;11.23;7.05;;;10.40;99.90;;;;;;5060904;28;20066;-79
2022/02/09 11:44:03;;;;;;;14.93;7.82;;;10.50;99.90;;;;;;5007694;28;20026;-79
2022/02/09 11:52:24;;;;;;;11.57;7.22;;;10.90;99.90;;;;;;5141181;27;20046;-82
2022/02/09 12:01:20;;;;;;;11.85;8.52;;;10.80;99.90;;;;;;5138202;27;20053;-83
2022/02/09 12:10:11;;;;;;;12.88;8.90;;;11.00;99.90;;;;;;5148378;27;20152;-85
2022/02/09 12:12:57;;;;;;;14.63;8.55;;;11.00;99.90;;;;;;5139160;27;20074;-81
2022/02/09 12:16:31;;;;;;;15.30;9.60;;;11.00;99.90;;;;;;5148881;27;20223;-81
2022/02/09 12:19:04;;;;;;;14.57;9.07;;;11.00;99.90;;;;;;5145968;27;20081;-79
2022/02/09 12:21:49;;;;;;;15.32;9.77;;;11.00;99.90;;;;;;5142475;27;20491;-80
2022/02/09 12:24:39;;;;;;;13.00;9.32;;;11.00;99.90;;;;;;5146356;27;20057;-79
2022/02/09 12:27:28;;;;;;;13.50;9.38;;;11.20;99.90;;;;;;5127748;28;20642;-80
2022/02/09 12:29:59;;;;;;;11.70;9.60;;;11.20;99.90;;;;;;5110832;28;20539;-80
2022/02/09 12:32:32;;;;;;;20.00;10.57;;;11.20;99.90;;;;;;5125127;28;20397;-79
2022/02/09 12:35:26;;;;;;;16.55;9.73;;;11.60;99.90;;;;;;5122464;28;20623;-79
